Time;durP1;ratioP1;P1;durP2;ratioP2;P2;SDS_P1;SDS_P2;PMS_P1;PMS_P2;Temp;Humidity;BMP_temperature;BMP_pressure;BME280_temperature;BME280_humidity;BME280_pressure;Samples;Min_cycle;Max_cycle;Signal;HPM_P1;HPM_P2
2023/10/28 00:02:37;;;;;;;11.25;4.60;;;;;;;10.66;100.00;99367.63;5069959;28;20043;-64
2023/10/28 00:05:25;;;;;;;13.32;4.72;;;;;;;10.65;100.00;99366.81;5089455;28;20050;-66
2023/10/28 00:08:13;;;;;;;15.75;4.75;;;;;;;10.62;100.00;99367.41;5113549;28;20147;-64
2023/10/28 00:11:04;;;;;;;16.55;4.43;;;;;;;10.60;100.00;99372.34;5109821;28;20090;-63
2023/10/28 00:13:52;;;;;;;13.60;4.38;;;;;;;10.57;100.00;99362.06;5112859;28;20053;-63
2023/10/28 00:16:40;;;;;;;14.60;4.38;;;;;;;10.59;100.00;99372.69;5097130;27;20414;-63
2023/10/28 00:19:29;;;;;;;13.05;4.85;;;;;;;10.61;100.00;99373.19;5118526;27;20054;-64
2023/10/28 00:22:18;;;;;;;18.80;4.82;;;;;;;10.60;100.00;99377.00;5087961;28;20040;-65
2023/10/28 00:25:06;;;;;;;15.95;4.20;;;;;;;10.60;100.00;99380.53;5078699;28;20076;-64
2023/10/28 00:27:54;;;;;;;11.55;3.78;;;;;;;10.63;100.00;99373.66;5126065;27;20036;-63
2023/10/28 00:30:42;;;;;;;13.65;4.80;;;;;;;10.62;100.00;99375.59;5114504;27;20042;-63
2023/10/28 00:33:30;;;;;;;14.43;4.60;;;;;;;10.62;100.00;99383.75;5074640;28;20048;-63
2023/10/28 00:36:20;;;;;;;12.52;4.00;;;;;;;10.63;100.00;99377.22;5096675;28;20051;-63
2023/10/28 00:39:08;;;;;;;11.07;3.95;;;;;;;10.63;100.00;99374.50;5088928;28;20052;-64
2023/10/28 00:41:57;;;;;;;13.88;4.40;;;;;;;10.62;100.00;99378.31;5097226;28;20181;-63
2023/10/28 00:44:45;;;;;;;11.18;4.22;;;;;;;10.62;100.00;99372.88;5096623;28;20044;-64
2023/10/28 00:47:35;;;;;;;11.85;4.45;;;;;;;10.62;100.00;99378.31;5096988;27;20039;-64
2023/10/28 00:50:23;;;;;;;10.75;4.00;;;;;;;10.63;100.00;99379.94;5104605;28;20455;-64
2023/10/28 00:53:13;;;;;;;8.95;3.65;;;;;;;10.63;100.00;99379.94;5097793;28;20071;-63
2023/10/28 00:56:01;;;;;;;12.00;4.13;;;;;;;10.64;100.00;99381.53;5096731;28;20527;-64
2023/10/28 00:58:51;;;;;;;11.25;4.00;;;;;;;10.67;100.00;99382.84;5099445;27;20065;-64
2023/10/28 01:01:39;;;;;;;13.68;4.00;;;;;;;10.68;100.00;99375.47;5107051;28;20048;-63
2023/10/28 01:04:27;;;;;;;12.65;3.88;;;;;;;10.68;100.00;99375.47;5112777;28;20499;-64
2023/10/28 01:07:15;;;;;;;10.95;3.75;;;;;;;10.67;100.00;99380.13;5079584;28;20044;-64
2023/10/28 01:10:04;;;;;;;9.90;3.75;;;;;;;10.68;100.00;99376.31;5094942;27;20118;-64
2023/10/28 01:12:52;;;;;;;10.77;3.90;;;;;;;10.67;100.00;99382.84;5098350;28;20135;-65
2023/10/28 01:15:40;;;;;;;10.45;3.70;;;;;;;10.68;100.00;99381.75;5102751;28;20079;-64
2023/10/28 01:18:28;;;;;;;12.35;3.40;;;;;;;10.68;100.00;99376.31;5115182;28;20055;-64
2023/10/28 01:21:16;;;;;;;9.48;3.00;;;;;;;10.67;100.00;99380.13;5103482;28;20035;-65
2023/10/28 01:24:06;;;;;;;9.68;3.15;;;;;;;10.64;100.00;99376.09;5113064;28;20071;-64
2023/10/28 01:26:55;;;;;;;7.30;2.85;;;;;;;10.67;100.00;99380.13;5083080;28;20044;-65
2023/10/28 01:29:43;;;;;;;9.60;3.15;;;;;;;10.68;100.00;99375.47;5092040;28;20173;-65
2023/10/28 01:32:31;;;;;;;9.07;3.03;;;;;;;10.70;100.00;99370.53;5104763;28;20044;-63
2023/10/28 01:35:19;;;;;;;10.20;3.38;;;;;;;10.70;100.00;99373.25;5084928;28;20039;-63
2023/10/28 01:38:07;;;;;;;8.20;2.80;;;;;;;10.71;100.00;99372.16;5086527;28;20051;-64
2023/10/28 01:40:57;;;;;;;9.88;2.83;;;;;;;10.73;100.00;99369.94;5087260;28;20036;-64
2023/10/28 01:43:46;;;;;;;7.07;2.72;;;;;;;10.73;100.00;99368.03;5111396;28;20043;-65
2023/10/28 01:46:36;;;;;;;10.13;2.92;;;;;;;10.74;100.00;99369.63;5111414;28;20419;-65
2023/10/28 01:49:24;;;;;;;9.02;3.30;;;;;;;10.74;100.00;99375.06;5104076;28;20048;-64
2023/10/28 01:52:12;;;;;;;8.57;2.92;;;;;;;10.70;100.00;99375.97;5100496;28;20047;-65
2023/10/28 01:55:01;;;;;;;7.22;2.80;;;;;;;10.69;100.00;99368.94;5091706;28;20419;-63
2023/10/28 01:57:48;;;;;;;7.78;3.05;;;;;;;10.68;100.00;99370.03;5091873;28;20043;-64
2023/10/28 02:00:36;;;;;;;7.13;2.80;;;;;;;10.68;100.00;99370.03;5091001;28;20044;-64
2023/10/28 02:03:24;;;;;;;9.15;2.97;;;;;;;10.69;100.00;99367.00;5081967;28;20125;-64
2023/10/28 02:06:13;;;;;;;6.05;2.45;;;;;;;10.70;100.00;99367.81;5068930;28;20047;-63
2023/10/28 02:09:02;;;;;;;5.85;2.33;;;;;;;10.71;100.00;99358.53;5067324;28;20424;-64
2023/10/28 02:11:52;;;;;;;6.65;2.40;;;;;;;10.72;100.00;99366.41;5066078;28;20110;-64
2023/10/28 02:14:40;;;;;;;4.57;2.40;;;;;;;10.72;100.00;99360.94;5062532;28;20055;-63
2023/10/28 02:17:28;;;;;;;6.47;2.40;;;;;;;10.71;100.00;99372.16;5075168;28;20040;-62
2023/10/28 02:20:16;;;;;;;7.85;2.47;;;;;;;10.71;100.00;99366.72;5064072;28;20381;-64
2023/10/28 02:23:08;;;;;;;6.60;2.70;;;;;;;10.72;100.00;99368.31;5059516;28;20399;-64
2023/10/28 02:25:56;;;;;;;4.10;2.00;;;;;;;10.73;100.00;99372.66;5094760;28;20052;-64
2023/10/28 02:28:45;;;;;;;8.20;2.78;;;;;;;10.73;100.00;99367.22;5096294;28;20040;-65
2023/10/28 02:31:33;;;;;;;7.32;2.45;;;;;;;10.71;100.00;99366.72;5094437;28;20040;-65
2023/10/28 02:34:22;;;;;;;6.82;2.38;;;;;;;10.70;100.00;99367.81;5090088;28;20051;-64
2023/10/28 02:37:10;;;;;;;4.18;2.10;;;;;;;10.70;100.00;99367.81;5066733;28;20189;-64
2023/10/28 02:39:59;;;;;;;5.28;2.30;;;;;;;10.69;100.00;99363.50;5093672;28;20524;-64
2023/10/28 02:42:48;;;;;;;7.82;2.40;;;;;;;10.68;100.00;99372.75;5082523;28;20138;-65
2023/10/28 02:45:36;;;;;;;6.63;2.42;;;;;;;10.68;100.00;99364.59;5108406;28;20039;-64
2023/10/28 02:48:24;;;;;;;6.05;2.03;;;;;;;10.66;100.00;99362.97;5115978;28;20046;-64
2023/10/28 02:51:12;;;;;;;6.10;2.25;;;;;;;10.65;100.00;99366.81;5129244;27;20479;-64
2023/10/28 02:54:01;;;;;;;3.97;2.00;;;;;;;10.66;100.00;99368.44;5119498;27;20035;-64
2023/10/28 02:56:49;;;;;;;3.38;1.95;;;;;;;10.67;100.00;99369.22;5122029;27;20413;-64
2023/10/28 02:59:37;;;;;;;4.50;2.00;;;;;;;10.69;100.00;99368.94;5117343;27;20321;-64
2023/10/28 03:02:25;;;;;;;6.03;2.33;;;;;;;10.67;100.00;99371.94;5115868;28;20075;-64
2023/10/28 03:05:15;;;;;;;3.97;1.65;;;;;;;10.64;100.00;99378.81;5114542;27;20465;-64
2023/10/28 03:08:03;;;;;;;4.85;1.83;;;;;;;10.65;100.00;99379.63;5131764;27;20399;-63
2023/10/28 03:10:51;;;;;;;5.65;2.20;;;;;;;10.65;100.00;99376.91;5077194;28;20203;-65
2023/10/28 03:13:39;;;;;;;3.50;1.75;;;;;;;10.64;100.00;99381.53;5109173;28;20192;-65
2023/10/28 03:16:28;;;;;;;5.25;1.98;;;;;;;10.65;100.00;99382.34;5099873;28;20039;-64
2023/10/28 03:19:17;;;;;;;5.72;2.17;;;;;;;10.66;100.00;99373.88;5115627;28;20495;-64
2023/10/28 03:22:05;;;;;;;4.80;1.70;;;;;;;10.65;100.00;99377.72;5100601;28;20067;-65
2023/10/28 03:24:53;;;;;;;4.40;1.70;;;;;;;10.65;100.00;99377.72;5100181;28;20161;-65
2023/10/28 03:27:42;;;;;;;3.83;1.92;;;;;;;10.66;100.00;99379.31;5106710;27;20537;-66
2023/10/28 03:30:30;;;;;;;3.00;1.55;;;;;;;10.66;100.00;99378.53;5099279;28;20062;-65
2023/10/28 03:33:18;;;;;;;5.30;1.92;;;;;;;10.66;100.00;99383.97;5112896;28;20047;-66
2023/10/28 03:36:09;;;;;;;4.88;1.67;;;;;;;10.66;100.00;99379.31;5083242;28;20039;-61
2023/10/28 03:38:57;;;;;;;3.90;1.80;;;;;;;10.66;100.00;99383.97;5098712;28;20386;-64
2023/10/28 03:41:45;;;;;;;5.13;1.90;;;;;;;10.65;100.00;99383.16;5118371;28;20043;-62
2023/10/28 03:44:34;;;;;;;7.18;2.20;;;;;;;10.68;100.00;99378.19;5126459;28;20039;-64
2023/10/28 03:47:22;;;;;;;3.67;1.73;;;;;;;10.66;100.00;99381.25;5126381;28;20092;-61
2023/10/28 03:50:10;;;;;;;2.90;1.85;;;;;;;10.64;100.00;99378.81;5118339;28;20162;-60
2023/10/28 03:52:59;;;;;;;4.53;2.00;;;;;;;10.61;100.00;99384.06;5114996;28;20040;-65
2023/10/28 03:55:47;;;;;;;4.28;1.85;;;;;;;10.59;100.00;99378.94;5104632;28;20039;-64
2023/10/28 03:58:36;;;;;;;4.47;2.20;;;;;;;10.57;100.00;99372.16;5120453;27;20043;-62
2023/10/28 04:01:24;;;;;;;5.82;2.40;;;;;;;10.57;100.00;99381.13;5103524;28;20080;-64
2023/10/28 04:04:12;;;;;;;3.22;1.92;;;;;;;10.58;100.00;99381.94;5112845;28;20055;-66
2023/10/28 04:07:01;;;;;;;4.00;2.10;;;;;;;10.55;100.00;99372.47;5096675;28;20039;-65
2023/10/28 04:09:49;;;;;;;4.95;2.15;;;;;;;10.55;100.00;99377.91;5098790;28;20119;-65
2023/10/28 04:12:37;;;;;;;4.78;2.20;;;;;;;10.52;100.00;99383.97;5111939;28;20039;-65
2023/10/28 04:15:25;;;;;;;4.25;1.77;;;;;;;10.48;100.00;99380.22;5099762;28;20075;-65
2023/10/28 04:18:13;;;;;;;4.82;2.10;;;;;;;10.49;100.00;99372.88;5114074;28;20507;-65
2023/10/28 04:21:01;;;;;;;7.55;2.20;;;;;;;10.49;100.00;99370.97;5072997;28;20037;-65
2023/10/28 04:23:49;;;;;;;4.30;2.15;;;;;;;10.47;100.00;99375.09;5078558;28;20488;-65
2023/10/28 04:26:37;;;;;;;5.47;2.40;;;;;;;10.48;100.00;99377.50;5088239;28;20047;-65
2023/10/28 04:29:25;;;;;;;5.47;1.90;;;;;;;10.44;100.00;99368.34;5114147;28;20525;-66
2023/10/28 04:32:17;;;;;;;4.05;1.80;;;;;;;10.45;100.00;99369.94;5133480;27;20081;-65
2023/10/28 04:35:06;;;;;;;7.07;2.47;;;;;;;10.48;100.00;99372.06;5135163;27;20053;-64
2023/10/28 04:38:10;;;;;;;5.13;2.20;;;;;;;10.50;100.00;99360.88;5097472;28;20039;-66
2023/10/28 04:40:58;;;;;;;7.32;2.47;;;;;;;10.44;100.00;99354.72;5113350;28;20048;-65
2023/10/28 04:43:46;;;;;;;4.93;2.30;;;;;;;10.38;100.00;99358.66;5111230;28;20127;-64
2023/10/28 04:46:34;;;;;;;5.60;2.45;;;;;;;10.34;100.00;99354.91;5098041;28;20132;-66
2023/10/28 04:49:23;;;;;;;6.00;2.53;;;;;;;10.34;100.00;99354.91;5111661;28;20052;-64
2023/10/28 04:52:11;;;;;;;8.20;2.75;;;;;;;10.35;100.00;99356.53;5121815;27;20067;-63
2023/10/28 04:54:59;;;;;;;5.28;2.17;;;;;;;10.37;100.00;99360.56;5133684;27;20143;-63
2023/10/28 04:57:47;;;;;;;7.32;2.65;;;;;;;10.38;100.00;99351.28;5134083;27;20135;-65
2023/10/28 05:00:35;;;;;;;5.90;2.10;;;;;;;10.40;100.00;99353.72;5117484;27;20142;-65
2023/10/28 05:03:24;;;;;;;4.50;2.45;;;;;;;10.40;100.00;99345.56;5091808;28;20194;-64
2023/10/28 05:06:12;;;;;;;5.55;2.20;;;;;;;10.39;100.00;99349.38;5113236;28;20517;-64
2023/10/28 05:09:00;;;;;;;6.95;2.40;;;;;;;10.43;100.00;99353.91;5097196;28;20411;-63
2023/10/28 05:11:59;;;;;;;7.32;2.83;;;;;;;10.46;100.00;99349.78;5094942;28;20103;-63
2023/10/28 05:14:48;;;;;;;5.82;2.65;;;;;;;10.45;100.00;99342.72;5081136;28;20420;-64
2023/10/28 05:17:36;;;;;;;5.40;2.30;;;;;;;10.45;100.00;99350.88;5105566;28;20109;-64
2023/10/28 05:20:24;;;;;;;4.13;2.20;;;;;;;10.43;100.00;99337.56;5096538;28;20048;-64
2023/10/28 05:23:13;;;;;;;5.22;2.20;;;;;;;10.46;100.00;99349.78;5078916;28;20040;-63
2023/10/28 05:26:01;;;;;;;6.70;2.35;;;;;;;10.47;100.00;99337.78;5077997;28;20039;-63
2023/10/28 05:28:51;;;;;;;5.18;2.08;;;;;;;10.47;100.00;99340.50;5118174;28;20133;-63
2023/10/28 05:31:40;;;;;;;6.40;2.83;;;;;;;10.47;100.00;99350.59;5132148;28;20047;-64
2023/10/28 05:34:28;;;;;;;8.02;2.40;;;;;;;10.47;100.00;99354.13;5086593;28;20143;-64
2023/10/28 05:37:16;;;;;;;4.72;2.20;;;;;;;10.46;100.00;99347.03;5110501;28;20051;-65
2023/10/28 05:40:06;;;;;;;7.07;2.60;;;;;;;10.43;100.00;99348.47;5112732;28;20083;-65
2023/10/28 05:42:55;;;;;;;6.07;2.42;;;;;;;10.44;100.00;99349.28;5109073;28;20134;-67
2023/10/28 05:45:43;;;;;;;5.63;2.25;;;;;;;10.42;100.00;99346.84;5075747;28;20137;-65
2023/10/28 05:48:32;;;;;;;5.45;2.10;;;;;;;10.43;100.00;99353.09;5111271;28;20533;-66
2023/10/28 05:51:21;;;;;;;5.25;2.30;;;;;;;10.45;100.00;99356.34;5080652;28;20051;-66
2023/10/28 05:54:11;;;;;;;8.00;2.50;;;;;;;10.42;100.00;99355.03;5076876;28;20570;-65
2023/10/28 05:56:59;;;;;;;10.48;2.60;;;;;;;10.42;100.00;99356.94;5081563;28;20048;-66
2023/10/28 05:59:48;;;;;;;10.27;2.50;;;;;;;10.41;100.00;99358.03;5092389;28;20130;-65
2023/10/28 06:02:39;;;;;;;7.55;2.53;;;;;;;10.43;100.00;99364.00;5112275;28;20503;-65
2023/10/28 06:05:27;;;;;;;6.15;2.58;;;;;;;10.45;100.00;99367.22;5116172;28;20479;-65
2023/10/28 06:08:16;;;;;;;7.50;2.75;;;;;;;10.45;100.00;99362.59;5100420;28;20193;-66
2023/10/28 06:11:05;;;;;;;8.60;2.90;;;;;;;10.46;100.00;99363.38;5113911;28;20468;-67
2023/10/28 06:13:53;;;;;;;8.52;2.85;;;;;;;10.45;100.00;99367.22;5110253;28;20546;-66
2023/10/28 06:16:46;;;;;;;6.15;2.65;;;;;;;10.44;100.00;99365.63;5116097;28;20196;-66
2023/10/28 06:19:34;;;;;;;9.63;2.80;;;;;;;10.45;100.00;99370.75;5100426;28;20036;-67
2023/10/28 06:22:22;;;;;;;6.72;2.40;;;;;;;10.47;100.00;99370.47;5117465;27;20376;-65
2023/10/28 06:25:10;;;;;;;7.32;2.85;;;;;;;10.43;100.00;99372.97;5088891;28;20039;-66
2023/10/28 06:27:58;;;;;;;8.05;2.63;;;;;;;10.43;100.00;99366.72;5116093;28;20038;-65
2023/10/28 06:30:47;;;;;;;7.18;2.70;;;;;;;10.45;100.00;99373.47;5104896;27;20039;-67
2023/10/28 06:33:35;;;;;;;8.60;2.85;;;;;;;10.46;100.00;99374.28;5081791;28;20514;-63
2023/10/28 06:36:23;;;;;;;6.88;2.80;;;;;;;10.44;100.00;99377.31;5082414;28;20085;-66
2023/10/28 06:39:11;;;;;;;6.97;2.63;;;;;;;10.45;100.00;99378.13;5100770;27;20442;-65
2023/10/28 06:42:01;;;;;;;7.85;2.70;;;;;;;10.47;100.00;99384.06;5110517;27;20040;-66
2023/10/28 06:44:50;;;;;;;12.45;3.22;;;;;;;10.47;100.00;99375.91;5110874;28;20050;-65
2023/10/28 06:47:38;;;;;;;7.70;3.10;;;;;;;10.47;100.00;99381.34;5099448;28;20140;-65
2023/10/28 06:50:26;;;;;;;9.60;3.30;;;;;;;10.48;100.00;99382.94;5107006;27;20056;-65
2023/10/28 06:53:14;;;;;;;7.18;2.80;;;;;;;10.48;100.00;99377.50;5098870;28;20047;-65
2023/10/28 06:56:03;;;;;;;6.25;2.75;;;;;;;10.47;100.00;99381.34;5123008;27;20047;-66
2023/10/28 06:58:51;;;;;;;8.25;3.03;;;;;;;10.46;100.00;99382.44;5080230;28;20044;-66
2023/10/28 07:01:40;;;;;;;6.53;2.70;;;;;;;10.48;100.00;99377.50;5093904;28;20104;-66
2023/10/28 07:04:28;;;;;;;8.90;3.00;;;;;;;10.50;100.00;99377.22;5114888;28;20047;-63
2023/10/28 07:07:16;;;;;;;8.80;2.60;;;;;;;10.52;100.00;99370.34;5114377;28;20042;-65
2023/10/28 07:10:05;;;;;;;4.70;2.42;;;;;;;10.51;100.00;99381.53;5086832;28;20040;-66
2023/10/28 07:12:53;;;;;;;6.28;2.47;;;;;;;10.49;100.00;99379.13;5110411;28;20303;-65
2023/10/28 07:15:41;;;;;;;9.13;2.42;;;;;;;10.50;100.00;99375.28;5100596;28;20048;-66
2023/10/28 07:18:30;;;;;;;9.15;2.60;;;;;;;10.50;100.00;99380.75;5115603;28;20495;-65
2023/10/28 07:21:18;;;;;;;7.38;2.65;;;;;;;10.53;100.00;99384.78;5114647;28;20039;-67
2023/10/28 07:24:11;;;;;;;5.93;2.58;;;;;;;10.54;100.00;99380.94;5071950;28;20081;-65
2023/10/28 07:26:59;;;;;;;8.65;2.85;;;;;;;10.53;100.00;99391.00;5108225;28;20044;-64
2023/10/28 07:29:50;;;;;;;6.75;2.45;;;;;;;10.55;100.00;99393.44;5112330;27;20529;-65
2023/10/28 07:32:39;;;;;;;6.10;2.58;;;;;;;10.56;100.00;99400.50;5091327;27;20047;-66
2023/10/28 07:35:28;;;;;;;6.55;2.40;;;;;;;10.55;100.00;99394.25;5120619;27;20040;-67
2023/10/28 07:38:17;;;;;;;4.03;2.30;;;;;;;10.57;100.00;99405.66;5105923;27;20043;-66
2023/10/28 07:41:06;;;;;;;12.43;3.15;;;;;;;10.58;100.00;99404.56;5108159;27;20445;-66
2023/10/28 07:43:54;;;;;;;6.93;2.38;;;;;;;10.58;100.00;99399.09;5121319;27;20141;-66
2023/10/28 07:46:42;;;;;;;6.13;2.53;;;;;;;10.59;100.00;99395.25;5112675;27;20040;-66
2023/10/28 07:49:30;;;;;;;5.65;2.42;;;;;;;10.65;100.00;99399.50;5119409;27;20046;-67
2023/10/28 07:52:18;;;;;;;7.47;2.53;;;;;;;10.66;100.00;99403.84;5108908;27;20051;-68
2023/10/28 07:55:07;;;;;;;5.00;2.13;;;;;;;10.68;100.00;99403.53;5094120;27;20042;-68
2023/10/28 07:57:56;;;;;;;7.38;2.47;;;;;;;10.69;100.00;99410.59;5081195;28;20039;-66
2023/10/28 08:00:46;;;;;;;7.65;2.80;;;;;;;10.69;100.00;99410.59;5078232;28;20488;-66
2023/10/28 08:03:34;;;;;;;7.57;2.40;;;;;;;10.71;100.00;99418.47;5046283;28;20047;-65
2023/10/28 08:06:23;;;;;;;6.50;2.50;;;;;;;10.71;100.00;99413.03;5100433;28;20044;-62
2023/10/28 08:09:22;;;;;;;6.40;2.40;;;;;;;10.74;100.00;99417.84;5119361;28;20036;-65
2023/10/28 08:12:11;;;;;;;7.55;2.53;;;;;;;10.74;100.00;99418.66;5090261;28;20134;-62
2023/10/28 08:15:03;;;;;;;7.40;2.53;;;;;;;10.75;100.00;99420.28;5076747;28;20036;-64
2023/10/28 08:17:52;;;;;;;6.03;2.45;;;;;;;10.76;100.00;99412.91;5092697;28;20052;-63
2023/10/28 08:20:44;;;;;;;6.28;2.42;;;;;;;10.78;100.00;99427.06;5121255;27;20052;-65
2023/10/28 08:23:32;;;;;;;9.70;3.13;;;;;;;10.84;100.00;99423.09;5112587;28;20040;-64
2023/10/28 08:26:20;;;;;;;7.88;2.85;;;;;;;10.86;100.00;99429.06;5115514;28;20043;-66
2023/10/28 08:29:08;;;;;;;14.95;4.25;;;;;;;10.94;100.00;99427.53;4383381;28;10000049;-67
2023/10/28 08:31:57;;;;;;;13.80;4.55;;;;;;;10.99;100.00;99441.88;5111196;28;20729;-67
2023/10/28 08:34:45;;;;;;;12.02;3.50;;;;;;;11.01;100.00;99433.38;5116947;27;20153;-66
2023/10/28 08:37:33;;;;;;;18.30;5.05;;;;;;;11.09;100.00;99440.84;5123672;27;20053;-66
2023/10/28 08:40:22;;;;;;;15.02;4.53;;;;;;;11.12;100.00;99442.16;5105374;28;20088;-68
2023/10/28 08:43:10;;;;;;;15.18;3.55;;;;;;;11.16;100.00;99445.84;5120070;27;20514;-67
2023/10/28 08:46:00;;;;;;;18.92;4.28;;;;;;;11.16;100.00;99446.69;5104401;28;20058;-67
2023/10/28 08:48:48;;;;;;;8.73;2.92;;;;;;;11.14;100.00;99446.19;5087019;28;20042;-67
2023/10/28 08:51:44;;;;;;;8.93;3.00;;;;;;;11.15;100.00;99455.16;5090930;28;20139;-66
2023/10/28 08:54:33;;;;;;;11.77;3.05;;;;;;;11.17;100.00;99456.47;5063614;28;20036;-66
2023/10/28 08:57:23;;;;;;;11.85;3.20;;;;;;;11.20;100.00;99455.06;5076047;28;20055;-64
2023/10/28 09:00:14;;;;;;;13.10;4.50;;;;;;;11.21;100.00;99460.22;5075514;28;20047;-64
2023/10/28 09:03:05;;;;;;;10.88;3.28;;;;;;;11.26;100.00;99460.09;5045545;28;20481;-64
2023/10/28 09:05:55;;;;;;;13.63;3.72;;;;;;;11.35;100.00;99454.69;5084496;28;20116;-64
2023/10/28 09:08:43;;;;;;;9.35;3.40;;;;;;;11.35;100.00;99468.34;5078782;28;20063;-64
2023/10/28 09:11:31;;;;;;;9.57;2.83;;;;;;;11.34;100.00;99463.22;5057935;28;20044;-63
2023/10/28 09:14:19;;;;;;;5.53;2.53;;;;;;;11.32;100.00;99471.69;5064734;28;20051;-65
2023/10/28 09:17:09;;;;;;;8.55;3.17;;;;;;;11.36;100.00;99471.91;5044259;28;20043;-65
2023/10/28 09:19:57;;;;;;;11.90;3.67;;;;;;;11.46;100.00;99469.72;5089689;28;20074;-64
2023/10/28 09:22:45;;;;;;;9.32;3.53;;;;;;;11.47;100.00;99476.81;5077879;28;20130;-65
2023/10/28 09:25:35;;;;;;;8.30;2.85;;;;;;;11.53;100.00;99477.50;5078477;28;20036;-65
2023/10/28 09:28:25;;;;;;;11.18;3.10;;;;;;;11.54;100.00;99475.56;5113685;28;20051;-66
2023/10/28 09:31:22;;;;;;;8.05;2.67;;;;;;;11.61;100.00;99473.22;5061052;28;20476;-65
2023/10/28 09:34:12;;;;;;;7.88;2.72;;;;;;;11.62;100.00;99472.94;5091589;28;20035;-64
2023/10/28 09:37:01;;;;;;;7.63;3.03;;;;;;;11.60;100.00;99471.63;5088990;28;20046;-64
2023/10/28 09:39:49;;;;;;;8.00;2.83;;;;;;;11.59;100.00;99467.28;5071301;28;20078;-65
2023/10/28 09:42:43;;;;;;;8.55;3.33;;;;;;;11.61;100.00;99478.69;5080245;28;20044;-64
2023/10/28 09:45:32;;;;;;;9.27;2.97;;;;;;;11.64;100.00;99472.59;5066477;28;20052;-64
2023/10/28 09:48:20;;;;;;;8.25;3.10;;;;;;;11.66;100.00;99465.72;5094983;28;20062;-64
2023/10/28 09:51:08;;;;;;;10.30;2.90;;;;;;;11.68;100.00;99468.97;5081551;28;20166;-65
2023/10/28 09:54:00;;;;;;;7.15;2.70;;;;;;;11.74;100.00;99475.13;5100978;28;20054;-65
2023/10/28 09:56:51;;;;;;;9.65;3.28;;;;;;;11.80;100.00;99478.53;5101149;28;20044;-64
2023/10/28 09:59:41;;;;;;;7.57;2.80;;;;;;;11.83;100.00;99466.97;5087281;28;20066;-65
2023/10/28 10:02:55;;;;;;;8.02;2.95;;;;;;;11.85;100.00;99473.75;5117374;28;20113;-65
2023/10/28 10:05:44;;;;;;;8.10;2.83;;;;;;;11.88;100.00;99470.44;5090736;28;20057;-64
2023/10/28 10:08:33;;;;;;;11.13;3.30;;;;;;;11.91;100.00;99467.09;5100663;28;20122;-66
2023/10/28 10:11:26;;;;;;;10.45;3.05;;;;;;;11.85;100.00;99462.81;5099458;28;20054;-65
2023/10/28 10:14:14;;;;;;;13.10;3.22;;;;;;;11.88;100.00;99459.53;5101489;28;20047;-65
2023/10/28 10:17:31;;;;;;;10.60;3.20;;;;;;;11.90;100.00;99456.47;5110586;27;20474;-65
2023/10/28 10:20:26;;;;;;;11.70;2.80;;;;;;;11.96;100.00;99462.63;5113520;28;20035;-65
2023/10/28 10:23:15;;;;;;;10.25;3.15;;;;;;;12.00;100.00;99479.97;5115750;28;20124;-65
2023/10/28 10:26:03;;;;;;;8.90;3.10;;;;;;;12.00;100.00;99474.53;5123881;27;20039;-65
2023/10/28 10:28:55;;;;;;;8.98;2.90;;;;;;;12.08;100.00;99481.97;5107118;28;20032;-66
2023/10/28 10:31:51;;;;;;;8.75;3.22;;;;;;;12.13;100.00;99484.59;5110575;27;20479;-65
2023/10/28 10:34:40;;;;;;;15.13;4.72;;;;;;;12.22;100.00;99481.88;5102367;28;20040;-65
2023/10/28 10:37:31;;;;;;;14.35;4.28;;;;;;;12.29;100.00;99483.09;5067365;28;20040;-65
2023/10/28 10:40:21;;;;;;;9.88;3.30;;;;;;;12.27;100.00;99479.06;5117261;28;20512;-65
2023/10/28 10:43:09;;;;;;;11.63;3.40;;;;;;;12.25;100.00;99481.28;5135926;27;20107;-65
2023/10/28 10:45:58;;;;;;;10.73;3.38;;;;;;;12.31;100.00;99480.84;5136823;27;20061;-65
2023/10/28 10:48:49;;;;;;;9.93;3.35;;;;;;;12.33;100.00;99478.59;5118220;27;20506;-65
2023/10/28 10:51:38;;;;;;;9.30;3.28;;;;;;;12.34;100.00;99485.69;5092735;28;20085;-64
2023/10/28 10:54:38;;;;;;;13.52;3.60;;;;;;;12.42;100.00;99477.84;5091037;28;20129;-67
2023/10/28 10:57:27;;;;;;;11.27;3.40;;;;;;;12.38;100.00;99474.13;5119567;27;20039;-67
2023/10/28 11:00:17;;;;;;;12.23;3.53;;;;;;;12.44;100.00;99475.63;5119073;27;20520;-67
2023/10/28 11:03:07;;;;;;;11.10;3.22;;;;;;;12.42;100.00;99478.66;5100124;28;20046;-67
2023/10/28 11:05:59;;;;;;;12.57;4.40;;;;;;;12.49;100.00;99478.22;5100459;28;20440;-67
2023/10/28 11:08:47;;;;;;;13.07;4.47;;;;;;;12.51;100.00;99478.72;5116371;27;20050;-67
2023/10/28 11:11:37;;;;;;;12.07;3.72;;;;;;;12.46;100.00;99487.84;5100284;28;20051;-67
2023/10/28 11:14:25;;;;;;;11.23;3.75;;;;;;;12.50;100.00;99482.53;5084880;28;20488;-67
2023/10/28 11:17:13;;;;;;;9.35;3.60;;;;;;;12.53;100.00;99481.91;5107384;27;20043;-67
2023/10/28 11:20:03;;;;;;;11.13;3.75;;;;;;;12.63;100.00;99476.19;5103332;27;20051;-67
2023/10/28 11:22:52;;;;;;;13.40;3.58;;;;;;;12.54;100.00;99473.41;5086536;28;20575;-67
2023/10/28 11:25:40;;;;;;;10.48;4.05;;;;;;;12.63;100.00;99476.19;5115478;28;20044;-67
2023/10/28 11:28:32;;;;;;;11.80;3.72;;;;;;;12.66;100.00;99466.56;5101693;27;20039;-67
2023/10/28 11:31:21;;;;;;;10.60;2.97;;;;;;;12.59;100.00;99467.00;5072032;28;20059;-67
2023/10/28 11:34:09;;;;;;;12.07;3.55;;;;;;;12.66;100.00;99469.28;5099595;28;20567;-67
2023/10/28 11:36:58;;;;;;;13.80;3.30;;;;;;;12.68;100.00;99476.03;5118381;27;20044;-67
2023/10/28 11:39:49;;;;;;;10.85;3.70;;;;;;;12.71;100.00;99478.13;5084627;28;20052;-66
2023/10/28 11:42:37;;;;;;;14.57;3.72;;;;;;;12.72;100.00;99479.78;5115772;28;20088;-67
2023/10/28 11:45:25;;;;;;;12.68;4.00;;;;;;;12.79;100.00;99468.34;5107409;27;20046;-67
2023/10/28 11:48:14;;;;;;;10.48;3.60;;;;;;;12.84;100.00;99470.16;5079101;28;20052;-67
2023/10/28 11:51:02;;;;;;;11.23;4.05;;;;;;;12.86;100.00;99473.38;5096877;28;20055;-67
2023/10/28 11:53:50;;;;;;;12.50;4.00;;;;;;;12.94;100.00;99480.78;5098804;28;20144;-67
2023/10/28 11:56:38;;;;;;;13.98;4.07;;;;;;;13.00;100.00;99469.41;5088478;27;20594;-67
2023/10/28 11:59:26;;;;;;;12.80;4.25;;;;;;;13.02;100.00;99471.81;5120884;27;20063;-67
2023/10/28 12:02:15;;;;;;;12.27;3.80;;;;;;;13.04;100.00;99475.06;5134510;27;20043;-66
2023/10/28 12:05:04;;;;;;;16.60;3.70;;;;;;;12.98;100.00;99474.38;5091233;27;20050;-68
2023/10/28 12:07:53;;;;;;;14.25;3.90;;;;;;;13.02;100.00;99477.28;5063738;28;20052;-66
2023/10/28 12:10:45;;;;;;;11.23;3.42;;;;;;;12.97;100.00;99485.63;4377506;28;10000792;-66
2023/10/28 12:13:33;;;;;;;13.95;4.35;;;;;;;12.96;100.00;99484.00;5096666;27;20047;-67
2023/10/28 12:16:22;;;;;;;13.55;4.00;;;;;;;12.94;100.00;99481.63;5081921;28;20044;-66
2023/10/28 12:19:10;;;;;;;15.40;4.10;;;;;;;12.92;100.00;99483.06;5082068;28;20077;-66
2023/10/28 12:21:58;;;;;;;14.20;3.80;;;;;;;12.92;100.00;99485.78;5093157;28;20043;-67
2023/10/28 12:24:46;;;;;;;14.30;3.90;;;;;;;12.93;100.00;99484.66;5076422;28;20059;-65
2023/10/28 12:27:34;;;;;;;15.43;3.95;;;;;;;12.96;100.00;99484.00;5115729;28;20040;-66
2023/10/28 12:30:22;;;;;;;12.85;4.28;;;;;;;12.96;100.00;99484.00;5114173;28;20040;-65
2023/10/28 12:33:11;;;;;;;12.52;3.70;;;;;;;13.07;100.00;99479.06;5104270;28;20127;-64
2023/10/28 12:35:59;;;;;;;14.25;4.00;;;;;;;13.20;100.00;99484.44;5102049;28;20058;-67
2023/10/28 12:38:48;;;;;;;10.10;3.70;;;;;;;13.14;100.00;99496.63;5085370;28;20047;-60
2023/10/28 12:41:36;;;;;;;17.63;4.65;;;;;;;13.15;100.00;99503.69;5106281;28;20123;-64
2023/10/28 12:44:25;;;;;;;15.68;3.90;;;;;;;13.12;100.00;99504.34;5106849;27;20047;-65
2023/10/28 12:47:13;;;;;;;19.33;4.53;;;;;;;13.13;100.00;99508.69;5078525;28;20056;-66
2023/10/28 12:50:03;;;;;;;12.68;4.22;;;;;;;13.16;100.00;99505.31;5077843;28;20048;-67
2023/10/28 12:52:53;;;;;;;14.43;4.22;;;;;;;13.20;100.00;99495.38;5079631;28;20492;-67
2023/10/28 12:55:41;;;;;;;17.40;4.40;;;;;;;13.31;100.00;99500.56;5079797;28;20048;-65
2023/10/28 12:58:29;;;;;;;15.05;3.97;;;;;;;13.35;100.00;99502.34;5078607;28;20153;-67
2023/10/28 13:01:17;;;;;;;17.17;4.38;;;;;;;13.41;100.00;99508.47;5072608;28;20047;-67
2023/10/28 13:04:07;;;;;;;15.82;4.20;;;;;;;13.33;100.00;99509.25;5097480;28;20044;-68